Latest Coastal Weather Observations for Gabo Island (VIC)

IDN60701

Issued at 1:01 am EDT Wednesday 7 December 2016 (issued every 10 minutes, with the page automatically refreshed every 10 minutes)

About coastal observations | Map of coastal stations | Coastal observations for NSW | Marine services | Other Formats
Station Details ID: 084016 Name: GABO ISLAND LIGHTHOUSE Lat: -37.57 Lon: 149.92 Height: 15.2 m
Data from the previous 72 hours. | See also: Recent months at Gabo Island (VIC)
Date/Time
EDT
Temp
°C
Wind Pressure Rain since
9am
mm
Weather Cloud Vis
km
Sea
Height
m
Swell
Dir  Spd
kts
Gust
kts
hPa Trend Height
m
Period
s
Dir
07/01:00am 14.5 W 14 18 1014.5 - 0.0 - - - - - - -
07/12:30am 14.5 WSW 16 20 1014.4 - 0.0 - - - - - - -
07/12:00am 14.5 WSW 15 19 1014.6 - 0.0 - - - - - - -
 
Date/Time
EDT
Temp
°C
Wind Pressure Rain since
9am
mm
Weather Cloud Vis
km
Sea
Height
m
Swell
Dir  Spd
kts
Gust
kts
hPa Trend Height
m
Period
s
Dir
06/11:30pm 14.8 WSW 14 18 1014.8 - 0.0 - - - - - - -
06/11:00pm 15.2 WSW 16 19 1014.6 - 0.0 - - - - - - -
06/10:30pm 15.3 WSW 16 21 1014.5 - 0.0 - - - - - - -
06/10:00pm 15.8 WSW 19 25 1014.3 - 0.0 - - - - - - -
06/09:30pm 15.8 WSW 20 25 1014.2 - 0.0 - - - - - - -
06/09:00pm 15.9 SW 22 26 1013.6 - 0.0 Fine Mostly cloudy 20 1 1.0 - -
06/08:30pm 15.9 SW 23 28 1013.5 - 0.0 - - - - - - -
06/08:00pm 15.9 SW 23 27 1013.2 - 0.0 - - - - - - -
06/07:30pm 16.0 SW 22 26 1013.1 - 0.0 - - - - - - -
06/07:00pm 16.0 SW 23 27 1012.6 - 0.0 - - - - - - -
06/06:30pm 16.0 SW 20 24 1012.6 - 0.0 - - - - - - -
06/06:00pm 16.1 SW 19 23 1012.1 - 0.0 - - - - - - -
06/05:30pm 15.9 SW 22 26 1011.6 - 0.0 - - - - - - -
06/05:00pm 16.1 SW 22 27 1011.7 - 0.0 - - - - - - -
06/04:30pm 16.5 SW 18 22 1011.6 - 0.0 - - - - - - -
06/04:00pm 16.4 SW 17 19 1011.6 - 0.0 - - - - - - -
06/03:30pm 16.0 SW 16 18 1011.5 - 0.0 - - - - - - -
06/03:00pm 16.2 SW 16 19 1011.6 - 0.0 Fine Cloudy 15 1 1.0 - -
06/02:30pm 16.1 SSW 16 18 1011.4 - 0.0 - - - - - - -
06/02:00pm 16.3 SSW 17 19 1011.3 - 0.0 - - - - - - -
06/01:30pm 16.8 SSW 15 19 1011.5 - 0.0 - - - - - - -
06/01:00pm 17.1 SSW 12 15 1011.8 - 0.0 - - - - - - -
06/12:30pm 17.2 SSW 9 12 1011.7 - 0.0 - - - - - - -
06/12:00pm 17.5 S 10 14 1011.7 - 0.0 - - - - - - -
06/11:30am 17.7 SSW 11 13 1012.2 - 0.0 - - - - - - -
06/11:00am 17.8 SSW 9 12 1012.2 - 0.0 - - - - - - -
06/10:30am 17.5 SSW 10 11 1012.7 - 0.0 - - - - - - -
06/10:00am 17.5 SSW 9 11 1012.3 - 0.0 - - - - - - -
06/09:30am 17.6 SSW 5 7 1012.5 - 0.0 - - - - - - -
06/09:00am 17.4 SSW 4 5 1012.3 - 0.0 Fine Cloudy 20 <0.5 1.0 - -
06/08:30am 17.2 N 4 5 1011.8 - 0.0 - - - - - - -
06/08:00am 16.8 N 3 5 1011.7 - 0.0 - - - - - - -
06/07:30am 16.4 NNW 3 4 1011.8 - 0.0 - - - - - - -
06/07:00am 16.4 NNE 5 6 1011.2 - 0.0 - - - - - - -
06/06:30am 16.0 NW 4 4 1011.5 - 0.0 - - - - - - -
06/06:00am 15.6 NW 4 5 1011.3 - 0.0 - - - - - - -
06/05:30am 15.8 NW 4 5 1011.2 - 0.0 - - - - - - -
06/05:00am 15.6 NW 4 5 1011.1 - 0.0 - - - - - - -
06/04:30am 15.5 CALM 0 0 1011.3 - 0.0 - - - - - - -
06/04:00am 15.7 CALM 0 0 1011.2 - 0.0 - - - - - - -
06/03:30am 16.3 SW 4 4 1012.2 - 0.0 - - - - - - -
06/03:00am 16.3 WSW 5 7 1012.7 - 0.0 Fine Cloudy 15 1 1.0 - -
06/02:30am 16.3 W 4 6 1012.9 - 0.0 - - - - - - -
06/02:00am 16.2 W 5 6 1013.0 - 0.0 - - - - - - -
06/01:30am 16.6 SW 8 9 1013.2 - 0.0 - - - - - - -
06/01:00am 16.5 WSW 7 9 1012.8 - 0.0 - - - - - - -
06/12:30am 16.7 SW 11 13 1013.7 - 0.0 - - - - - - -
06/12:00am 16.6 WSW 12 14 1014.9 - 0.0 - - - - - - -
 
Date/Time
EDT
Temp
°C
Wind Pressure Rain since
9am
mm
Weather Cloud Vis
km
Sea
Height
m
Swell
Dir  Spd
kts
Gust
kts
hPa Trend Height
m
Period
s
Dir
05/11:30pm 16.6 WSW 11 13 1014.3 - 0.0 - - - - - - -
05/11:00pm 16.6 WSW 12 14 1014.1 - 0.0 - - - - - - -
05/10:30pm 16.7 WSW 13 17 1014.2 - 0.0 - - - - - - -
05/10:00pm 16.8 SW 16 19 1014.0 - 0.0 - - - - - - -
05/09:30pm 16.8 SW 16 20 1014.1 - 0.0 - - - - - - -
05/09:00pm 16.7 WSW 17 19 1013.7 - 0.0 Fine Cloudy 10 1 1.0 - -
05/08:30pm 16.8 SW 16 19 1013.8 - 0.0 - - - - - - -
05/08:00pm 16.8 SW 18 21 1013.3 - 0.0 - - - - - - -
05/07:30pm 16.4 SW 18 23 1013.4 - 0.0 - - - - - - -
05/07:00pm 16.7 SW 20 25 1013.2 - 0.0 - - - - - - -
05/06:30pm 17.2 SW 19 22 1012.7 - 0.0 - - - - - - -
05/06:00pm 17.3 SW 18 21 1012.0 - 0.0 - - - - - - -
05/05:30pm 17.3 SW 20 25 1012.2 - 0.0 - - - - - - -
05/05:00pm 17.3 SW 21 25 1011.5 - 0.0 - - - - - - -
05/04:30pm 17.9 SW 21 25 1011.4 - 0.0 - - - - - - -
05/04:00pm 17.9 SW 23 26 1011.4 - 0.0 - - - - - - -
05/03:30pm 18.1 SW 22 27 1011.2 - 0.0 - - - - - - -
05/03:00pm 18.8 SW 23 26 1010.6 - 0.0 Haze Mostly cloudy 10 1 1.0 - -
05/02:30pm 18.4 SW 27 31 1010.2 - 0.0 - - - - - - -
05/02:00pm 18.5 SSW 28 32 1010.1 - 0.0 - - - - - - -
05/01:30pm 18.6 SW 26 33 1009.9 - 0.0 - - - - - - -
05/01:00pm 19.4 SW 26 31 1009.8 - 0.0 - - - - - - -
05/12:30pm 19.6 SW 23 29 1009.7 - 0.0 - - - - - - -
05/12:00pm 20.2 SW 22 28 1009.5 - 0.0 - - - - - - -
05/11:30am 20.7 SW 24 27 1009.0 - 0.0 - - - - - - -
05/11:19am 20.7 SW 26 36 1008.8 - 0.0 - - - - - - -
05/11:10am 21.9 SW 30 36 1008.0 - 0.0 - - - - - - -
05/11:05am 23.0 W 15 28 1008.2 - 0.0 - - - - - - -
05/11:00am 21.9 NE 8 11 1007.7 - 0.0 - - - - - - -
05/10:30am 21.8 NNE 8 11 1006.9 - 0.0 - - - - - - -
05/10:00am 21.9 NE 6 8 1006.9 - 0.0 - - - - - - -
05/09:30am 21.8 NNE 12 14 1007.0 - 0.0 - - - - - - -
05/09:00am 21.7 NNE 12 14 1007.1 - 2.6 Fine Partly cloudy 10 1 1.0 - -
05/08:30am 21.3 NNE 16 19 1006.7 - 2.6 - - - - - - -
05/08:00am 20.9 NNE 19 23 1006.4 - 2.6 - - - - - - -
05/07:30am 21.0 NNE 21 25 1006.2 - 2.6 - - - - - - -
05/07:00am 20.7 NNE 24 30 1005.9 - 2.6 - - - - - - -
05/06:30am 20.7 NNE 24 29 1005.8 - 2.6 - - - - - - -
05/06:00am 20.1 NE 17 25 1005.9 - 2.6 - - - - - - -
05/05:30am 19.9 NNE 8 13 1007.1 - 2.6 - - - - - - -
05/05:00am 19.8 NNE 17 23 1006.7 - 2.6 - - - - - - -
05/04:30am 20.2 NNE 16 21 1006.8 - 2.6 - - - - - - -
05/04:00am 20.3 N 21 28 1006.8 - 2.6 - - - - - - -
05/03:30am 19.7 NNE 17 20 1006.9 - 2.6 - - - - - - -
05/03:00am 20.3 NNE 17 22 1007.6 - 2.0 Rain Cloudy 10 1 1.0 - -
05/02:30am 20.1 NNE 16 21 1008.0 - 1.6 - - - - - - -
05/02:00am 20.3 N 19 23 1008.4 - 1.2 - - - - - - -
05/01:30am 20.2 N 18 23 1008.2 - 1.0 - - - - - - -
05/01:00am 19.6 NNE 17 21 1008.2 - 1.0 - - - - - - -
05/12:30am 19.4 NNE 15 17 1009.2 - 0.8 - - - - - - -
05/12:00am 19.7 NNE 14 18 1009.2 - 0.6 Rain - - - - - -
 
Date/Time
EDT
Temp
°C
Wind Pressure Rain since
9am
mm
Weather Cloud Vis
km
Sea
Height
m
Swell
Dir  Spd
kts
Gust
kts
hPa Trend Height
m
Period
s
Dir
04/11:30pm 19.6 NNE 15 19 1009.4 - 0.2 - - - - - - -
04/11:00pm 20.3 N 18 23 1009.9 - 0.0 - - - - - - -
04/10:30pm 20.4 N 15 20 1010.4 - 0.0 - - - - - - -
04/10:00pm 20.6 N 18 25 1010.3 - 0.0 - - - - - - -
04/09:32pm 20.8 NNE 22 32 1009.3 - 0.0 - - - - - - -
04/09:30pm 20.7 NNE 21 29 1009.4 - 0.0 - - - - - - -
04/09:00pm 20.7 NNE 26 32 1008.8 - 0.0 Distant precip. Cloudy 15 1 1.0 - -
04/08:30pm 20.6 NNE 27 33 1008.4 - 0.0 - - - - - - -
04/08:00pm 20.5 NNE 28 33 1008.5 - 0.0 - - - - - - -
04/07:30pm 20.4 NNE 27 33 1008.6 - 0.0 - - - - - - -
04/07:00pm 20.8 NNE 26 32 1008.9 - 0.0 - - - - - - -
04/06:30pm 20.9 NNE 26 30 1009.2 - 0.0 - - - - - - -
04/06:00pm 21.3 NNE 26 31 1009.1 - 0.0 - - - - - - -
04/05:30pm 21.3 NNE 27 33 1009.3 - 0.0 - - - - - - -
04/05:00pm 21.9 NNE 28 35 1009.3 - 0.0 - - - - - - -
04/04:30pm 21.8 NNE 29 35 1009.7 - 0.0 - - - - - - -
04/04:00pm 21.7 NNE 29 35 1009.7 - 0.0 - - - - - - -
04/03:30pm 21.8 NNE 28 33 1010.1 - 0.0 - - - - - - -
04/03:00pm 22.4 NNE 29 37 1010.2 - 0.0 Haze Mostly cloudy 20 1 1.0 - -
04/02:30pm 22.1 NNE 28 33 1010.5 - 0.0 - - - - - - -
04/02:00pm 22.4 NNE 27 31 1010.8 - 0.0 - - - - - - -
04/01:30pm 22.6 NNE 24 30 1011.2 - 0.0 - - - - - - -
04/01:00pm 22.2 NNE 22 25 1011.6 - 0.0 - - - - - - -
04/12:30pm 21.7 NNE 21 25 1012.0 - 0.0 - - - - - - -
04/12:00pm 21.3 NNE 22 25 1012.2 - 0.0 - - - - - - -
04/11:30am 21.7 NNE 21 25 1012.3 - 0.0 - - - - - - -
04/11:00am 21.9 NNE 20 23 1012.8 - 0.0 - - - - - - -
04/10:30am 21.4 NNE 19 23 1013.1 - 0.0 - - - - - - -
04/10:00am 21.0 NNE 21 25 1013.1 - 0.0 - - - - - - -
04/09:30am 20.4 NE 19 22 1013.6 - 0.0 - - - - - - -
04/09:00am 20.6 NE 18 22 1013.6 - 0.0 - Mostly cloudy 20 1 1.0 - -
04/08:30am 20.1 NNE 17 19 1014.0 - 0.0 - - - - - - -
04/08:00am 20.2 NNE 13 18 1014.2 - 0.0 - - - - - - -
04/07:30am 19.5 NNE 9 11 1014.9 - 0.0 - - - - - - -
04/07:00am 18.2 NNE 6 9 1014.8 - 0.0 - - - - - - -
04/06:30am 17.3 NNE 6 8 1014.7 - 0.0 - - - - - - -
04/06:00am 16.8 NNE 9 10 1014.4 - 0.0 - - - - - - -
04/05:30am 16.8 NNE 10 12 1014.3 - 0.0 - - - - - - -
04/05:00am 16.6 NE 11 13 1014.3 - 0.0 - - - - - - -
04/04:30am 16.3 NNE 6 7 1014.6 - 0.0 - - - - - - -
04/04:00am 15.9 NNE 4 6 1014.7 - 0.0 - - - - - - -
04/03:30am 16.0 NNE 3 4 1014.9 - 0.0 - - - - - - -
04/03:00am 16.4 NE 4 5 1015.0 - 0.0 Fine Mostly clear 30 1 1.0 - -
04/02:30am 16.2 NNE 4 5 1015.4 - 0.0 - - - - - - -
04/02:00am 17.0 NE 3 4 1015.9 - 0.0 - - - - - - -
04/01:30am 17.3 N 4 5 1016.0 - 0.0 - - - - - - -

Other Formats:

Comma delimited format used in spreadsheet applications
http://www.bom.gov.au/fwo/IDN60701/IDN60701.94933.axf

JavaScript Object Notation format (JSON) in row-major order
http://www.bom.gov.au/fwo/IDN60701/IDN60701.94933.json